createdAt,value
2022-09-23T00:01:46.594Z,101532.89
2022-09-23T00:07:02.087Z,101534.31
2022-09-23T00:13:41.308Z,101533.52
2022-09-23T00:19:01.645Z,101523.88
2022-09-23T00:24:12.032Z,101518.38
2022-09-23T00:29:27.033Z,101521.98
2022-09-23T00:34:48.191Z,101521.44
2022-09-23T00:40:06.677Z,101514.38
2022-09-23T00:45:27.478Z,101515.88
2022-09-23T00:50:51.947Z,101519.38
2022-09-23T00:56:25.520Z,101517.11
2022-09-23T01:02:20.108Z,101514.16
2022-09-23T01:07:48.916Z,101516.75
2022-09-23T01:13:25.514Z,101510.94
2022-09-23T01:19:02.560Z,101510.84
2022-09-23T01:24:58.436Z,101509.20
2022-09-23T01:30:59.447Z,101510.47
2022-09-23T01:36:25.496Z,101511.30
2022-09-23T01:41:54.110Z,101505.57
2022-09-23T01:47:27.721Z,101506.98
2022-09-23T01:52:55.308Z,101503.67
2022-09-23T01:58:28.204Z,101503.38
2022-09-23T02:04:01.937Z,101502.48
2022-09-23T02:09:26.091Z,101498.14
2022-09-23T02:14:57.146Z,101496.44
2022-09-23T02:20:21.120Z,101496.12
2022-09-23T02:25:43.679Z,101492.64
2022-09-23T02:30:57.076Z,101491.55
2022-09-23T02:36:24.029Z,101493.23
2022-09-23T02:42:00.383Z,101488.06
2022-09-23T02:47:20.767Z,101488.45
2022-09-23T02:52:28.486Z,101479.83
2022-09-23T02:58:21.865Z,101479.73
2022-09-23T03:04:21.347Z,101472.70
2022-09-23T03:09:57.865Z,101470.78
2022-09-23T03:15:17.017Z,101468.31
2022-09-23T03:20:51.299Z,101468.63
2022-09-23T03:26:25.215Z,101465.38
2022-09-23T03:31:46.173Z,101463.36
2022-09-23T03:37:01.546Z,101458.58
2022-09-23T03:42:33.176Z,101452.98
2022-09-23T03:48:01.803Z,101455.50
2022-09-23T03:53:14.014Z,101453.61
2022-09-23T03:58:33.213Z,101451.00
2022-09-23T04:03:41.618Z,101450.25
2022-09-23T04:09:03.400Z,101453.85
2022-09-23T04:14:29.549Z,101452.92
2022-09-23T04:19:51.889Z,101447.75
2022-09-23T04:25:20.227Z,101450.82
2022-09-23T04:30:49.120Z,101451.43
2022-09-23T04:36:08.642Z,101449.65
2022-09-23T04:41:21.845Z,101450.80
2022-09-23T04:46:29.250Z,101447.48
2022-09-23T04:51:56.367Z,101450.38
2022-09-23T04:57:04.149Z,101458.24
2022-09-23T05:02:32.452Z,101459.42
2022-09-23T05:07:40.500Z,101459.08
2022-09-23T05:12:48.103Z,101458.10
2022-09-23T05:18:02.676Z,101461.90
2022-09-23T05:23:30.264Z,101456.00
2022-09-23T05:28:58.594Z,101452.88
2022-09-23T05:34:07.464Z,101453.98
2022-09-23T05:39:17.488Z,101455.15
2022-09-23T05:44:24.941Z,101452.65
2022-09-23T05:49:59.151Z,101457.11
2022-09-23T05:55:12.833Z,101459.80
2022-09-23T06:00:42.860Z,101461.19
2022-09-23T06:06:01.202Z,101459.53
2022-09-23T06:11:10.525Z,101459.04
2022-09-23T06:16:38.615Z,101460.54
2022-09-23T06:22:01.098Z,101462.14
2022-09-23T06:27:21.828Z,101463.54
2022-09-23T06:32:52.319Z,101467.00
2022-09-23T06:38:09.905Z,101466.34
2022-09-23T06:43:36.399Z,101460.23
2022-09-23T06:49:03.489Z,101456.70
2022-09-23T06:54:18.319Z,101453.70
2022-09-23T06:59:35.798Z,101447.73
2022-09-23T07:04:51.488Z,101445.67
2022-09-23T07:10:16.002Z,101440.30
2022-09-23T07:15:28.612Z,101438.42
2022-09-23T07:20:59.058Z,101442.71
2022-09-23T07:26:21.607Z,101437.52
2022-09-23T07:31:42.943Z,101433.59
2022-09-23T07:37:11.015Z,101428.47
2022-09-23T07:42:26.098Z,101430.88
2022-09-23T07:47:36.120Z,101425.71
2022-09-23T07:52:57.250Z,101428.08
2022-09-23T07:58:26.523Z,101427.77
2022-09-23T08:04:00.775Z,101425.46
2022-09-23T08:09:31.988Z,101418.47
2022-09-23T08:15:00.801Z,101413.30
2022-09-23T08:20:35.874Z,101414.27
2022-09-23T08:25:47.671Z,101407.85
2022-09-23T08:30:58.210Z,101400.74
2022-09-23T08:36:16.400Z,101400.88
2022-09-23T08:41:45.512Z,101402.30
2022-09-23T08:46:58.764Z,101400.65
2022-09-23T08:52:27.585Z,101399.75
2022-09-23T08:58:25.020Z,101401.97
2022-09-23T09:03:38.532Z,101401.20
2022-09-23T09:09:14.774Z,101398.35
2022-09-23T09:14:50.144Z,101396.45
2022-09-23T09:20:31.264Z,101396.71
2022-09-23T09:25:55.734Z,101396.19
2022-09-23T09:31:25.609Z,101396.39
2022-09-23T09:36:40.119Z,101397.98
2022-09-23T09:42:08.659Z,101392.56
2022-09-23T09:47:38.733Z,101391.76
2022-09-23T09:53:15.758Z,101386.14
2022-09-23T09:59:08.342Z,101383.75
2022-09-23T10:04:37.984Z,101373.30
2022-09-23T10:09:58.313Z,101365.13
2022-09-23T10:15:34.246Z,101367.33
2022-09-23T10:20:41.530Z,101364.58
2022-09-23T10:26:01.512Z,101360.08
2022-09-23T10:31:16.273Z,101354.98
2022-09-23T10:36:26.886Z,101348.60
2022-09-23T10:42:06.171Z,101345.61
2022-09-23T10:47:35.639Z,101338.16
2022-09-23T10:53:19.873Z,101338.33
2022-09-23T10:58:54.996Z,101336.00
2022-09-23T11:04:25.293Z,101328.55
2022-09-23T11:10:29.184Z,101334.21
2022-09-23T11:16:15.613Z,101330.30
2022-09-23T11:22:09.127Z,101321.55
2022-09-23T11:27:30.965Z,101315.32
2022-09-23T11:33:16.537Z,101307.64
2022-09-23T11:38:28.306Z,101307.83
2022-09-23T11:43:56.604Z,101302.35
2022-09-23T11:49:30.065Z,101292.19
2022-09-23T11:55:08.826Z,101291.65
2022-09-23T12:00:36.438Z,101285.66
2022-09-23T12:06:07.970Z,101272.45
2022-09-23T12:11:42.704Z,101270.55
2022-09-23T12:17:18.069Z,101271.42
2022-09-23T12:22:58.140Z,101263.17
2022-09-23T12:28:20.831Z,101256.21
2022-09-23T12:33:54.969Z,101252.73
2022-09-23T12:39:31.388Z,101251.26
2022-09-23T12:44:52.111Z,101247.34
2022-09-23T12:50:52.407Z,101247.69
2022-09-23T12:56:24.088Z,101244.96
2022-09-23T13:01:44.555Z,101242.71
2022-09-23T13:07:07.560Z,101239.92
2022-09-23T13:12:31.232Z,101232.10
2022-09-23T13:17:41.123Z,101225.73
2022-09-23T13:23:17.626Z,101221.94
2022-09-23T13:28:33.838Z,101209.46
2022-09-23T13:33:47.072Z,101204.41
2022-09-23T13:38:54.288Z,101202.84
2022-09-23T13:44:19.506Z,101193.52
2022-09-23T13:49:41.210Z,101188.46
2022-09-23T13:54:55.696Z,101182.61
2022-09-23T14:00:23.440Z,101181.49
2022-09-23T14:05:41.584Z,101176.28
2022-09-23T14:10:59.738Z,101172.49
2022-09-23T14:16:28.897Z,101168.05
2022-09-23T14:21:37.640Z,101165.45
2022-09-23T14:26:47.790Z,101163.52
2022-09-23T14:31:58.423Z,101161.86
2022-09-23T14:37:42.850Z,101151.81
2022-09-23T14:43:17.897Z,101146.28
2022-09-23T14:48:35.453Z,101144.41
2022-09-23T14:53:45.942Z,101140.16
2022-09-23T14:58:59.273Z,101134.04
2022-09-23T15:04:35.653Z,101129.33
2022-09-23T15:09:47.561Z,101124.30
2022-09-23T15:14:59.612Z,101121.71
2022-09-23T15:20:10.206Z,101113.58
2022-09-23T15:25:43.731Z,101111.38
2022-09-23T15:31:01.241Z,101113.33
2022-09-23T15:36:21.172Z,101110.23
2022-09-23T15:41:28.764Z,101112.70
2022-09-23T15:46:40.288Z,101108.87
2022-09-23T15:51:47.535Z,101103.55
2022-09-23T15:56:55.541Z,101100.63
2022-09-23T16:02:27.690Z,101094.79
2022-09-23T16:08:19.845Z,101096.20
2022-09-23T16:14:14.403Z,101095.88
2022-09-23T16:19:34.434Z,101095.69
2022-09-23T16:24:42.882Z,101097.65
2022-09-23T16:30:13.437Z,101097.21
2022-09-23T16:35:28.136Z,101098.03
2022-09-23T16:40:35.407Z,101096.99
2022-09-23T16:45:47.607Z,101091.85
2022-09-23T16:51:20.593Z,101101.34
2022-09-23T16:56:29.839Z,101101.73
2022-09-23T17:01:55.028Z,101104.92
2022-09-23T17:07:06.585Z,101102.35
2022-09-23T17:12:20.063Z,101094.83
2022-09-23T17:17:28.616Z,101094.03
2022-09-23T17:22:36.513Z,101089.55
2022-09-23T17:27:43.956Z,101090.48
2022-09-23T17:32:51.177Z,101088.02
2022-09-23T17:37:58.665Z,101092.09
2022-09-23T17:43:06.077Z,101085.91
2022-09-23T17:48:17.306Z,101085.66
2022-09-23T17:53:25.088Z,101089.08
2022-09-23T17:58:34.077Z,101091.27
2022-09-23T18:03:43.585Z,101089.24
2022-09-23T18:09:14.194Z,101092.54
2022-09-23T18:14:49.557Z,101092.87
2022-09-23T18:19:57.201Z,101094.94
2022-09-23T18:25:22.673Z,101096.28
2022-09-23T18:30:39.304Z,101100.08
2022-09-23T18:35:52.728Z,101096.66
2022-09-23T18:41:03.889Z,101097.89
2022-09-23T18:46:17.768Z,101094.13
2022-09-23T18:51:38.634Z,101091.23
2022-09-23T18:56:53.166Z,101093.80
2022-09-23T19:02:12.353Z,101097.95
2022-09-23T19:07:23.666Z,101094.64
2022-09-23T19:12:33.242Z,101095.58
2022-09-23T19:17:41.739Z,101095.92
2022-09-23T19:22:51.391Z,101090.96
2022-09-23T19:28:08.561Z,101092.85
2022-09-23T19:33:25.005Z,101090.89
2022-09-23T19:38:36.542Z,101091.46
2022-09-23T19:43:49.125Z,101090.08
2022-09-23T19:49:03.193Z,101086.86
2022-09-23T19:54:21.610Z,101080.84
2022-09-23T19:59:32.767Z,101081.61
2022-09-23T20:04:40.720Z,101083.11
2022-09-23T20:09:51.228Z,101077.21
2022-09-23T20:15:00.524Z,101073.72
2022-09-23T20:20:22.009Z,101072.27
2022-09-23T20:26:01.810Z,101074.38
2022-09-23T20:31:35.912Z,101071.46
2022-09-23T20:37:08.141Z,101065.27
2022-09-23T20:42:20.285Z,101059.13
2022-09-23T20:47:28.346Z,101052.23
2022-09-23T20:52:39.319Z,101051.59
2022-09-23T20:57:51.511Z,101048.04
2022-09-23T21:03:00.110Z,101050.02
2022-09-23T21:08:08.755Z,101050.14
2022-09-23T21:13:41.923Z,101053.05
2022-09-23T21:18:50.588Z,101052.23
2022-09-23T21:24:23.850Z,101055.15
2022-09-23T21:29:30.339Z,101051.13
2022-09-23T21:34:40.494Z,101055.11
2022-09-23T21:40:09.278Z,101057.11
2022-09-23T21:45:17.306Z,101058.81
2022-09-23T21:50:30.582Z,101058.82
2022-09-23T21:55:40.544Z,101056.45
2022-09-23T22:01:00.193Z,101058.12
2022-09-23T22:06:21.871Z,101056.23
2022-09-23T22:11:57.977Z,101053.93
2022-09-23T22:17:26.470Z,101050.59
2022-09-23T22:22:41.742Z,101047.68
2022-09-23T22:28:03.213Z,101045.91
2022-09-23T22:33:16.258Z,101037.40
2022-09-23T22:38:37.504Z,101038.10
2022-09-23T22:43:49.816Z,101035.63
2022-09-23T22:48:59.595Z,101034.94
2022-09-23T22:54:33.370Z,101033.70
2022-09-23T22:59:48.447Z,101027.98
2022-09-23T23:05:15.171Z,101024.71
2022-09-23T23:10:40.120Z,101026.81
2022-09-23T23:15:55.948Z,101019.55
2022-09-23T23:21:19.004Z,101023.36
2022-09-23T23:26:47.102Z,101019.77
2022-09-23T23:31:56.113Z,101016.02
2022-09-23T23:37:25.681Z,101012.41
2022-09-23T23:42:47.376Z,101014.81
2022-09-23T23:47:57.940Z,101007.64
2022-09-23T23:53:27.216Z,101004.83
2022-09-23T23:58:42.391Z,101002.60
